Rome Ciampino, Italy

2:14 PM CET on January 26, 2015 (GMT +0100)
Ciampino | Change Station
CLOSE
Current Station
Personal Weather Station
Location: Ciampino, LAZIO
Elevation: 348 ft
Nearby Weather Stations
Active Advisory: Wind

Elev 348 ft 41.81 °N, 12.60 °E | Updated 11 minutes ago

Partly Cloudy
Partly Cloudy
56.1 °F
Feels Like 56.1 °F
N
3.1
Wind Variable Wind from NW
Gusts 6.0 mph

Today
High -- | Low -- °F
--% Chance of Precip.
Yesterday
High -- | Low -- °F
Precip. -- in
7:28 AM 5:16 PM
Waxing Crescent, 43% visible
Pressure 30.06 in
Visibility 6.2 miles
Clouds Few 2000 ft
Dew Point 27 °F
Humidity 32%
Rainfall 0.00 in
Snow Depth Not available.
UV 1.0 out of 12
Pollen Not available.
Air Quality Not available.
Flu Activity Not available.
METAR LIRE 261255Z 36008KT 9999 FEW020 12/02 Q1018 RMK SCT VIS MIN 9999 WIND THR31 /////KT BLU

More Conditions Fewer Conditions

Pressure 30.06 in
Visibility 6.2 miles
Clouds Few 2000 ft
Dew Point 27 °F
Humidity 32%
Rainfall 0.00 in
Snow Depth Not available.
UV 1.0 out of 12
Pollen Not available.
Air Quality Not available.
Flu Activity Not available.
METAR LIRE 261255Z 36008KT 9999 FEW020 12/02 Q1018 RMK SCT VIS MIN 9999 WIND THR31 /////KT BLU

More Conditions Fewer Conditions

10-Day Weather Forecast

Almanac

Astronomy

Jan. 26, 2015 Rise Set
Actual Time
Civil Twilight
Nautical Twilight
Astronomical Twilight
Moon
Length of Visible Light
Length of Day
Tomorrow will be .
, % of the Moon is Illuminated

Today's Extremes

Country Highs Country Lows

Community

WunderPhotos

Upload Photos

1,790,192 photos uploaded!

WunderBlogs® & News

Nearby

Air Quality

  Air Quality AQ Index Pollutant
Not available.

Snow Depth

Station Depth Elevation

Earthquake Activity

City Distance Mag. Time & Date
Minimum magnitude displayed is 2.5.

Coastal Water Temperatures

Place Temperature

Nearby Weather Stations